Time;durP1;ratioP1;P1;durP2;ratioP2;P2;SDS_P1;SDS_P2;PMS_P1;PMS_P2;Temp;Humidity;BMP_temperature;BMP_pressure;BME280_temperature;BME280_humidity;BME280_pressure;Samples;Min_cycle;Max_cycle;Signal;HPM_P1;HPM_P2
2023/02/18 00:01:09;;;;;;;32.38;19.08;;;;;;;3.81;100.00;101252.91;5029834;28;20022;-73
2023/02/18 00:03:34;;;;;;;32.25;18.67;;;;;;;3.67;100.00;101243.31;5030004;28;20029;-72
2023/02/18 00:05:59;;;;;;;29.02;17.75;;;;;;;3.63;100.00;101241.31;5029295;28;20029;-72
2023/02/18 00:08:25;;;;;;;27.80;19.00;;;;;;;3.89;100.00;101294.41;5030238;28;20036;-71
2023/02/18 00:10:50;;;;;;;30.27;19.25;;;;;;;3.76;100.00;101274.66;5029202;28;20026;-73
2023/02/18 00:13:17;;;;;;;31.88;20.98;;;;;;;3.77;100.00;101289.22;5031829;28;20439;-74
2023/02/18 00:15:42;;;;;;;30.85;20.48;;;;;;;3.70;100.00;101285.31;5048816;28;20397;-74
2023/02/18 00:18:08;;;;;;;30.13;19.67;;;;;;;3.69;100.00;101272.44;4995962;28;20110;-71
2023/02/18 00:20:35;;;;;;;32.22;20.00;;;;;;;3.33;100.00;101221.19;5049788;28;20032;-73
2023/02/18 00:23:01;;;;;;;32.35;20.17;;;;;;;3.42;100.00;101238.00;5049286;28;20116;-75
2023/02/18 00:25:26;;;;;;;33.50;20.20;;;;;;;3.52;100.00;101269.44;5049722;28;20068;-74
2023/02/18 00:27:52;;;;;;;34.60;21.55;;;;;;;3.46;100.00;101250.22;5049617;28;20460;-74
2023/02/18 00:30:17;;;;;;;32.85;21.75;;;;;;;3.54;100.00;101262.81;5048915;28;20033;-74
2023/02/18 00:32:43;;;;;;;32.45;20.85;;;;;;;3.36;100.00;101213.75;5049805;28;20517;-73
2023/02/18 00:35:08;;;;;;;33.83;21.80;;;;;;;3.74;100.00;101255.81;5049525;28;20040;-70
2023/02/18 00:37:34;;;;;;;33.17;21.13;;;;;;;3.68;100.00;101246.00;5049919;28;20479;-72
2023/02/18 00:39:59;;;;;;;33.97;21.50;;;;;;;3.59;100.00;101244.38;5032626;28;20033;-71
2023/02/18 00:42:24;;;;;;;31.35;22.13;;;;;;;3.55;100.00;101238.16;5041902;28;20087;-69
2023/02/18 00:44:50;;;;;;;33.35;21.88;;;;;;;3.42;100.00;101233.75;5040927;28;20040;-71
2023/02/18 00:47:15;;;;;;;32.58;21.90;;;;;;;3.29;100.00;101226.81;5048728;28;20025;-73
2023/02/18 00:49:41;;;;;;;31.30;20.85;;;;;;;3.24;100.00;101225.56;5050012;28;20475;-70
2023/02/18 00:52:06;;;;;;;32.35;20.50;;;;;;;3.30;100.00;101233.72;5049477;28;20087;-70
2023/02/18 00:54:32;;;;;;;32.58;20.60;;;;;;;3.24;100.00;101216.25;5050158;28;20025;-71
2023/02/18 00:56:57;;;;;;;31.58;21.45;;;;;;;3.27;100.00;101220.69;5050091;28;20035;-73
2023/02/18 00:59:23;;;;;;;35.40;21.77;;;;;;;3.25;100.00;101217.13;5049304;28;20465;-69
2023/02/18 01:01:48;;;;;;;34.25;21.85;;;;;;;3.00;100.00;101176.91;5049859;28;20038;-73
2023/02/18 01:04:13;;;;;;;36.35;23.38;;;;;;;3.11;100.00;101203.28;5050079;28;20025;-70
2023/02/18 01:06:39;;;;;;;33.08;21.67;;;;;;;3.14;100.00;101210.28;5049784;28;20028;-72
2023/02/18 01:09:05;;;;;;;32.90;21.92;;;;;;;3.16;100.00;101211.31;5032359;28;20025;-73
2023/02/18 01:11:31;;;;;;;32.10;20.63;;;;;;;3.16;100.00;101211.31;5049713;28;20028;-73
2023/02/18 01:13:56;;;;;;;31.83;20.88;;;;;;;3.08;100.00;101193.72;5048659;28;20049;-72
2023/02/18 01:16:22;;;;;;;37.60;23.55;;;;;;;3.03;100.00;101187.38;5049722;28;20029;-72
2023/02/18 01:18:48;;;;;;;35.15;23.27;;;;;;;2.99;100.00;101198.13;5031654;28;20033;-72
2023/02/18 01:21:14;;;;;;;33.55;22.55;;;;;;;2.20;100.00;101077.16;5050116;28;20104;-73
2023/02/18 01:23:41;;;;;;;35.63;23.52;;;;;;;2.51;100.00;101145.00;5031707;28;20131;-72
2023/02/18 01:26:06;;;;;;;36.47;21.98;;;;;;;2.72;100.00;101192.59;5049607;28;20025;-75
2023/02/18 01:28:32;;;;;;;38.87;25.00;;;;;;;2.27;100.00;101104.03;5048792;28;20553;-73
2023/02/18 01:31:06;;;;;;;37.53;23.93;;;;;;;2.74;100.00;101183.41;5049661;28;20033;-72
2023/02/18 01:33:32;;;;;;;37.90;23.37;;;;;;;2.72;100.00;101190.03;5049606;28;20540;-69
2023/02/18 01:35:57;;;;;;;36.73;23.53;;;;;;;2.81;100.00;101186.47;5049644;28;20107;-74
2023/02/18 01:38:22;;;;;;;38.50;22.73;;;;;;;2.52;100.00;101141.69;5049667;28;20021;-69
2023/02/18 01:40:50;;;;;;;35.90;24.10;;;;;;;2.82;100.00;101186.56;5049833;28;20036;-72
2023/02/18 01:43:17;;;;;;;38.67;25.03;;;;;;;2.92;100.00;101180.53;5048967;28;20029;-71
2023/02/18 01:46:04;;;;;;;35.28;22.65;;;;;;;2.94;100.00;101185.75;5049856;28;20070;-73
2023/02/18 01:48:43;;;;;;;38.33;23.58;;;;;;;2.90;100.00;101170.22;5036424;28;20403;-72
2023/02/18 01:51:12;;;;;;;37.75;23.80;;;;;;;2.86;100.00;101172.41;5049248;28;20485;-72
2023/02/18 01:54:16;;;;;;;29.98;19.67;;;;;;;2.79;100.00;101165.94;5050019;28;20056;-73
2023/02/18 01:56:55;;;;;;;39.40;24.30;;;;;;;2.42;100.00;101104.38;5053247;28;20024;-75
2023/02/18 01:59:24;;;;;;;;;;;;;;;2.64;100.00;101157.97;5053595;28;20037;-71
2023/02/18 02:01:50;;;;;;;36.78;23.55;;;;;;;2.50;100.00;101136.44;5052583;28;19913;-72
2023/02/18 02:04:17;;;;;;;36.87;24.10;;;;;;;2.39;100.00;101122.88;5052734;28;20029;-73
2023/02/18 02:06:42;;;;;;;39.67;25.97;;;;;;;2.72;100.00;101156.91;5052867;28;20499;-73
2023/02/18 02:09:11;;;;;;;39.03;24.70;;;;;;;2.79;100.00;101157.38;5052672;28;20138;-73
2023/02/18 02:11:58;;;;;;;35.83;24.98;;;;;;;2.95;100.00;101157.81;5052797;28;20025;-73
2023/02/18 02:14:52;;;;;;;39.55;25.67;;;;;;;2.95;100.00;101154.38;5040633;28;20048;-73
2023/02/18 02:17:30;;;;;;;38.92;25.60;;;;;;;3.03;100.00;101159.31;5032440;28;20033;-75
2023/02/18 02:19:55;;;;;;;41.60;26.17;;;;;;;3.05;100.00;101160.34;5032370;28;20412;-70
2023/02/18 02:22:26;;;;;;;42.33;27.02;;;;;;;2.78;100.00;101128.47;5032579;28;20033;-71
2023/02/18 02:25:10;;;;;;;41.03;26.58;;;;;;;3.00;100.00;101163.28;5031989;28;20063;-70
2023/02/18 02:27:51;;;;;;;39.40;26.77;;;;;;;3.02;100.00;101164.31;5020679;28;20029;-70
2023/02/18 02:30:46;;;;;;;40.37;25.00;;;;;;;2.89;100.00;101150.59;5032052;28;20101;-72
2023/02/18 02:33:23;;;;;;;40.63;24.98;;;;;;;2.84;100.00;101164.66;5031905;28;20087;-70
2023/02/18 02:36:02;;;;;;;38.80;25.10;;;;;;;2.63;100.00;101151.09;5032921;28;20535;-73
2023/02/18 02:38:38;;;;;;;38.83;26.13;;;;;;;2.77;100.00;101159.81;5032380;28;20037;-71
2023/02/18 02:41:20;;;;;;;39.42;25.35;;;;;;;2.74;100.00;101163.03;5032168;28;20026;-72
2023/02/18 02:44:18;;;;;;;37.00;25.38;;;;;;;2.86;100.00;101162.22;5020093;28;20056;-69
2023/02/18 02:46:54;;;;;;;41.88;27.10;;;;;;;2.83;100.00;101161.94;4951709;29;20490;-73
2023/02/18 02:49:37;;;;;;;36.35;24.33;;;;;;;2.82;100.00;101173.81;4951637;29;20584;-70
2023/02/18 02:52:06;;;;;;;39.17;25.15;;;;;;;2.85;100.00;101186.81;4951513;29;20129;-73
2023/02/18 02:54:32;;;;;;;39.10;25.58;;;;;;;2.86;100.00;101170.75;4951321;29;20090;-72
2023/02/18 02:57:13;;;;;;;41.15;26.05;;;;;;;2.95;100.00;101193.53;4951606;29;20556;-72
2023/02/18 02:59:42;;;;;;;37.63;24.65;;;;;;;2.88;100.00;101187.06;4951094;29;20043;-72
2023/02/18 03:02:31;;;;;;;39.33;25.92;;;;;;;2.86;100.00;101191.13;4951264;29;20035;-70
2023/02/18 03:05:05;;;;;;;37.88;24.63;;;;;;;2.79;100.00;101171.03;4951222;28;20073;-71
2023/02/18 03:07:56;;;;;;;40.13;25.95;;;;;;;2.66;100.00;101166.59;4951051;29;20757;-73
2023/02/18 03:10:49;;;;;;;37.73;23.17;;;;;;;2.57;100.00;101159.13;4951441;29;20498;-74
2023/02/18 03:13:24;;;;;;;36.87;23.97;;;;;;;2.47;100.00;101164.25;4950854;28;20035;-70
2023/02/18 03:16:10;;;;;;;41.27;25.40;;;;;;;2.38;100.00;101163.50;4951040;29;20097;-71
2023/02/18 03:18:40;;;;;;;38.80;24.70;;;;;;;2.38;100.00;101156.75;4950881;29;20738;-69
2023/02/18 03:21:14;;;;;;;40.73;25.50;;;;;;;2.36;100.00;101150.63;4950839;29;20035;-72
2023/02/18 03:23:58;;;;;;;39.83;25.63;;;;;;;2.26;100.00;101137.94;4983931;28;20409;-72
2023/02/18 03:26:26;;;;;;;38.27;24.53;;;;;;;2.23;100.00;101148.75;5031601;28;20079;-72
2023/02/18 03:28:55;;;;;;;39.97;25.20;;;;;;;1.85;100.00;101103.22;5031394;28;20033;-71
2023/02/18 03:31:26;;;;;;;40.15;24.83;;;;;;;2.00;100.00;101130.72;5031208;28;20399;-72
2023/02/18 03:33:58;;;;;;;38.73;24.53;;;;;;;2.10;100.00;101157.03;5031450;28;20030;-71
2023/02/18 03:36:24;;;;;;;40.30;23.90;;;;;;;2.01;100.00;101153.75;5031481;28;20021;-72
2023/02/18 03:38:58;;;;;;;45.47;27.07;;;;;;;1.93;100.00;101157.31;5013669;28;20125;-72
2023/02/18 03:41:24;;;;;;;43.60;26.23;;;;;;;1.86;100.00;101161.00;5013425;28;20465;-73
2023/02/18 03:43:59;;;;;;;41.53;26.63;;;;;;;1.80;100.00;101144.34;5031258;28;20025;-73
2023/02/18 03:46:25;;;;;;;41.50;25.23;;;;;;;1.78;100.00;101147.66;5031134;28;20021;-72
2023/02/18 03:48:51;;;;;;;40.57;24.97;;;;;;;1.79;100.00;101161.25;5031022;28;20082;-71
2023/02/18 03:51:16;;;;;;;40.03;25.67;;;;;;;1.68;100.00;101160.34;5031165;28;20025;-75
2023/02/18 03:53:41;;;;;;;43.03;26.60;;;;;;;1.71;100.00;101163.16;5031073;28;20476;-72
2023/02/18 03:56:07;;;;;;;41.43;26.57;;;;;;;1.65;100.00;101160.13;5030608;28;20041;-72
2023/02/18 03:58:32;;;;;;;44.93;27.63;;;;;;;1.78;100.00;101174.75;5012818;28;20021;-70
2023/02/18 04:00:58;;;;;;;42.07;26.07;;;;;;;1.71;100.00;101164.84;5030834;28;20029;-71
2023/02/18 04:03:23;;;;;;;43.47;27.60;;;;;;;1.83;100.00;101170.94;5030875;28;20037;-73
2023/02/18 04:05:48;;;;;;;40.93;25.43;;;;;;;1.87;100.00;101182.25;5030922;28;20025;-70
2023/02/18 04:08:14;;;;;;;42.93;26.97;;;;;;;1.80;100.00;101180.88;5030867;28;20064;-74
2023/02/18 04:10:39;;;;;;;43.27;26.27;;;;;;;1.68;100.00;101170.53;5030466;28;20033;-72
2023/02/18 04:13:05;;;;;;;45.07;27.00;;;;;;;1.51;100.00;101145.31;5031116;28;20041;-73
2023/02/18 04:15:31;;;;;;;43.80;27.17;;;;;;;1.72;100.00;101176.78;5050580;28;20037;-73
2023/02/18 04:17:56;;;;;;;44.87;27.97;;;;;;;1.72;100.00;101177.69;5050270;28;20033;-70
2023/02/18 04:20:22;;;;;;;44.37;27.87;;;;;;;1.71;100.00;101168.25;5050079;28;20033;-72
2023/02/18 04:22:48;;;;;;;50.10;29.07;;;;;;;1.80;100.00;101183.41;5050666;28;20090;-69
2023/02/18 04:25:13;;;;;;;43.90;27.53;;;;;;;1.76;100.00;101169.53;5050332;28;20388;-71
2023/02/18 04:27:38;;;;;;;46.20;27.57;;;;;;;1.85;100.00;101179.59;5032286;28;20033;-69
2023/02/18 04:30:05;;;;;;;45.83;26.33;;;;;;;1.76;100.00;101156.81;5050400;28;20024;-72
2023/02/18 04:32:30;;;;;;;47.53;27.27;;;;;;;1.70;100.00;101163.94;5032505;28;20032;-70
2023/02/18 04:34:56;;;;;;;50.60;30.70;;;;;;;1.53;100.00;101126.00;5050304;28;20035;-73
2023/02/18 04:37:21;;;;;;;45.20;27.90;;;;;;;1.72;100.00;101164.97;5050172;28;20103;-70
2023/02/18 04:39:46;;;;;;;46.60;28.00;;;;;;;1.66;100.00;101172.09;5050376;28;20083;-69
2023/02/18 04:42:12;;;;;;;45.80;28.57;;;;;;;1.53;100.00;101147.25;4998384;28;20098;-71
2023/02/18 04:44:37;;;;;;;46.03;27.40;;;;;;;1.54;100.00;101160.88;5050174;28;20074;-72
2023/02/18 04:47:05;;;;;;;51.50;28.93;;;;;;;1.52;100.00;101157.28;5050072;28;20052;-70
2023/02/18 04:49:30;;;;;;;47.83;30.37;;;;;;;1.44;100.00;101170.25;5050643;28;20119;-72
2023/02/18 04:51:56;;;;;;;47.53;30.80;;;;;;;1.58;100.00;101183.25;5050575;28;20132;-70
2023/02/18 04:54:21;;;;;;;48.53;30.17;;;;;;;1.60;100.00;101179.19;5050439;28;20037;-70
2023/02/18 04:56:47;;;;;;;48.30;29.30;;;;;;;1.59;100.00;101179.97;5050234;28;20041;-70
2023/02/18 04:59:12;;;;;;;49.47;32.37;;;;;;;1.57;100.00;101181.47;5050539;28;20029;-70
2023/02/18 05:01:37;;;;;;;53.60;36.10;;;;;;;1.64;100.00;101183.78;5032896;28;20035;-71
2023/02/18 05:04:03;;;;;;;45.13;30.47;;;;;;;1.59;100.00;101173.19;5050273;28;20040;-73
2023/02/18 05:06:28;;;;;;;46.93;30.37;;;;;;;1.53;100.00;101182.88;5050129;28;20033;-72
2023/02/18 05:08:54;;;;;;;49.40;30.73;;;;;;;1.40;100.00;101169.88;5050306;28;20032;-71
2023/02/18 05:11:19;;;;;;;45.90;28.17;;;;;;;1.07;100.00;101121.38;5050046;28;20029;-69
2023/02/18 05:13:45;;;;;;;46.70;28.10;;;;;;;1.08;100.00;101125.66;5044035;28;20060;-71
2023/02/18 05:16:10;;;;;;;47.67;29.13;;;;;;;1.37;100.00;101167.97;5030386;28;20021;-72
2023/02/18 05:18:36;;;;;;;47.00;29.30;;;;;;;1.44;100.00;101171.91;5030552;28;20032;-72
2023/02/18 05:21:01;;;;;;;49.10;30.60;;;;;;;1.56;100.00;101175.50;5030443;28;20034;-72
2023/02/18 05:23:26;;;;;;;48.03;30.50;;;;;;;1.56;100.00;101174.63;5030230;28;20079;-73
2023/02/18 05:25:53;;;;;;;51.37;31.53;;;;;;;1.65;100.00;101185.56;5012235;28;20087;-70
2023/02/18 05:28:19;;;;;;;60.63;35.00;;;;;;;1.77;100.00;101195.91;5030569;28;20403;-74
2023/02/18 05:30:44;;;;;;;57.67;34.17;;;;;;;1.57;100.00;101156.94;5034640;28;20033;-71
2023/02/18 05:33:10;;;;;;;51.43;31.90;;;;;;;1.77;100.00;101196.78;5034055;28;20025;-71
2023/02/18 05:35:36;;;;;;;50.87;31.00;;;;;;;1.77;100.00;101201.00;5034146;28;20029;-69
2023/02/18 05:38:02;;;;;;;47.87;30.10;;;;;;;1.80;100.00;101195.28;5033825;28;20116;-73
2023/02/18 05:40:27;;;;;;;49.67;30.43;;;;;;;1.80;100.00;101203.78;5033770;28;20035;-69
2023/02/18 05:42:53;;;;;;;47.37;30.43;;;;;;;1.68;100.00;101200.19;5033830;28;20484;-73
2023/02/18 05:45:18;;;;;;;48.20;29.10;;;;;;;1.79;100.00;101204.53;5034011;28;20025;-70
2023/02/18 05:47:43;;;;;;;50.00;30.30;;;;;;;1.69;100.00;101197.78;5033961;28;20112;-74
2023/02/18 05:50:09;;;;;;;49.70;30.20;;;;;;;1.64;100.00;101195.63;5033644;28;20476;-70
2023/02/18 05:52:35;;;;;;;49.83;30.70;;;;;;;1.69;100.00;101207.97;5033517;28;20041;-72
2023/02/18 05:55:00;;;;;;;51.20;32.03;;;;;;;1.66;100.00;101207.72;5033798;28;20091;-71
2023/02/18 05:57:25;;;;;;;47.53;30.00;;;;;;;1.61;100.00;101202.22;5033662;28;20042;-72
2023/02/18 05:59:51;;;;;;;46.57;30.77;;;;;;;1.69;100.00;101204.53;5015853;28;20039;-71
2023/02/18 06:02:16;;;;;;;48.93;31.90;;;;;;;1.73;100.00;101199.84;5033477;28;20033;-71
2023/02/18 06:04:42;;;;;;;51.20;32.13;;;;;;;1.73;100.00;101199.84;5033543;28;20029;-70
2023/02/18 06:07:07;;;;;;;54.37;33.60;;;;;;;1.77;100.00;101201.00;5033345;28;20044;-71
2023/02/18 06:09:33;;;;;;;66.80;40.07;;;;;;;1.76;100.00;101204.31;5033127;28;20033;-73
2023/02/18 06:11:58;;;;;;;73.03;44.10;;;;;;;1.70;100.00;101188.50;5033216;28;20075;-72
2023/02/18 06:14:23;;;;;;;52.47;34.57;;;;;;;1.77;100.00;101206.09;5033223;28;20504;-71
2023/02/18 06:16:49;;;;;;;56.57;36.70;;;;;;;1.76;100.00;101207.72;5032877;28;20395;-71
2023/02/18 06:19:15;;;;;;;64.53;40.73;;;;;;;1.72;100.00;101195.50;5029575;28;20404;-72
2023/02/18 06:21:40;;;;;;;56.10;34.23;;;;;;;1.76;100.00;101206.84;5023648;28;20102;-72
2023/02/18 06:24:06;;;;;;;54.60;35.93;;;;;;;1.82;100.00;101204.81;5024019;28;20037;-70
2023/02/18 06:26:33;;;;;;;51.60;32.83;;;;;;;1.90;100.00;101195.25;5024059;28;20407;-72
2023/02/18 06:28:58;;;;;;;57.67;35.80;;;;;;;1.98;100.00;101189.16;5019376;28;20477;-73
2023/02/18 06:31:24;;;;;;;54.70;33.90;;;;;;;2.00;100.00;101181.66;5013243;28;20037;-74
2023/02/18 06:33:49;;;;;;;56.07;35.23;;;;;;;1.91;100.00;101169.03;5012674;28;20033;-71
2023/02/18 06:36:15;;;;;;;52.87;33.33;;;;;;;1.67;100.00;101132.22;4992464;28;20403;-74
2023/02/18 06:38:42;;;;;;;67.20;38.50;;;;;;;2.04;100.00;101179.44;5012826;28;20030;-78
2023/02/18 06:41:08;;;;;;;59.40;35.00;;;;;;;2.02;100.00;101188.66;5016391;28;20037;-71
2023/02/18 06:43:34;;;;;;;57.83;35.90;;;;;;;2.04;100.00;101176.03;5026829;28;20037;-70
2023/02/18 06:45:59;;;;;;;65.07;39.87;;;;;;;2.09;100.00;101175.66;5024622;28;20037;-71
2023/02/18 06:48:25;;;;;;;57.37;32.40;;;;;;;2.19;100.00;101174.72;5015844;28;20030;-72
2023/02/18 06:50:51;;;;;;;53.83;34.17;;;;;;;2.23;100.00;101165.69;5016377;28;20392;-72
2023/02/18 06:53:16;;;;;;;57.40;34.57;;;;;;;2.32;100.00;101174.09;5017211;28;20037;-72
2023/02/18 06:55:44;;;;;;;50.27;30.17;;;;;;;2.40;100.00;101160.28;5012344;28;20093;-71
2023/02/18 06:58:10;;;;;;;48.47;29.23;;;;;;;2.51;100.00;101147.56;5012909;28;20030;-69
2023/02/18 07:00:36;;;;;;;52.20;31.43;;;;;;;2.61;100.00;101141.53;5012585;28;21695;-69
2023/02/18 07:03:01;;;;;;;45.37;29.07;;;;;;;2.67;100.00;101121.63;5027514;28;20018;-73
2023/02/18 07:05:27;;;;;;;50.83;29.67;;;;;;;2.84;100.00;101108.53;5020104;28;20092;-70
2023/02/18 07:07:53;;;;;;;48.23;30.50;;;;;;;2.98;100.00;101117.25;5001630;28;20021;-73
2023/02/18 07:10:19;;;;;;;50.00;30.67;;;;;;;3.12;100.00;101122.56;5021435;28;20021;-69
2023/02/18 07:12:44;;;;;;;48.33;29.23;;;;;;;3.30;100.00;101129.06;5031063;28;20040;-75
2023/02/18 07:15:10;;;;;;;50.47;31.33;;;;;;;3.20;100.00;101080.63;5031733;28;20053;-71
2023/02/18 07:17:37;;;;;;;45.10;29.50;;;;;;;3.70;100.00;101124.44;5051912;28;20048;-72
2023/02/18 07:20:03;;;;;;;39.47;26.25;;;;;;;3.91;100.00;101129.34;5051948;28;20024;-72
2023/02/18 07:22:29;;;;;;;47.47;29.58;;;;;;;4.04;100.00;101138.84;5051676;28;20032;-71
2023/02/18 07:24:54;;;;;;;44.90;30.15;;;;;;;3.88;100.00;101109.56;5051761;28;20035;-72
2023/02/18 07:27:21;;;;;;;45.60;30.00;;;;;;;4.22;100.00;101139.28;5051546;28;20040;-71
2023/02/18 07:29:48;;;;;;;44.53;28.52;;;;;;;4.28;100.00;101142.28;5051741;28;20032;-72
2023/02/18 07:32:16;;;;;;;42.15;28.42;;;;;;;4.33;100.00;101138.41;5030999;28;20474;-70
2023/02/18 07:34:41;;;;;;;43.25;29.20;;;;;;;4.10;100.00;101089.81;5051642;28;20039;-70
2023/02/18 07:37:11;;;;;;;43.25;30.15;;;;;;;4.25;100.00;101107.94;5051249;28;20025;-72
2023/02/18 07:39:44;;;;;;;42.20;29.77;;;;;;;4.43;100.00;101132.28;5040821;28;20099;-70
2023/02/18 07:42:11;;;;;;;41.72;28.17;;;;;;;4.50;100.00;101142.19;4996814;28;20033;-71
2023/02/18 07:44:37;;;;;;;44.65;27.98;;;;;;;4.57;100.00;101145.19;5031467;28;20021;-71
2023/02/18 07:47:04;;;;;;;44.33;29.02;;;;;;;4.63;100.00;101131.16;5013588;28;20033;-71
2023/02/18 07:49:29;;;;;;;41.10;27.73;;;;;;;4.65;100.00;101132.16;5031265;28;20029;-71
2023/02/18 07:51:55;;;;;;;40.05;28.90;;;;;;;4.49;100.00;101086.69;5030374;28;20074;-71
2023/02/18 07:54:20;;;;;;;45.08;29.08;;;;;;;4.79;100.00;101122.03;5031293;28;20491;-71
2023/02/18 07:56:47;;;;;;;43.90;28.08;;;;;;;4.83;100.00;101111.22;5046643;28;20498;-73
2023/02/18 07:59:14;;;;;;;41.47;26.65;;;;;;;4.92;100.00;101100.75;5050737;28;20052;-70
2023/02/18 08:01:39;;;;;;;42.20;28.58;;;;;;;4.79;100.00;101048.72;5050802;28;20028;-72
2023/02/18 08:04:07;;;;;;;41.45;27.00;;;;;;;5.13;100.00;101091.97;5050412;28;20431;-75
2023/02/18 08:06:43;;;;;;;41.45;27.17;;;;;;;5.18;100.00;101087.19;5050142;28;20039;-74
2023/02/18 08:09:08;;;;;;;43.47;27.88;;;;;;;5.39;100.00;101097.13;5051036;28;20060;-75
2023/02/18 08:11:34;;;;;;;44.22;27.65;;;;;;;5.52;100.00;101094.63;5051060;28;20138;-69
2023/02/18 08:14:00;;;;;;;38.92;26.80;;;;;;;5.66;100.00;101085.31;5050570;28;20057;-70
2023/02/18 08:16:25;;;;;;;50.97;27.48;;;;;;;5.65;100.00;101050.22;5050960;28;20491;-75
2023/02/18 08:18:51;;;;;;;42.03;25.83;;;;;;;5.91;100.00;101071.56;5050747;28;20029;-75
2023/02/18 08:21:19;;;;;;;39.40;25.40;;;;;;;6.09;100.00;101083.03;5050706;28;20029;-75
2023/02/18 08:23:45;;;;;;;39.30;27.25;;;;;;;6.20;100.00;101088.84;5050713;28;20037;-72
2023/02/18 08:26:10;;;;;;;45.33;27.13;;;;;;;6.31;100.00;101094.66;5008475;28;20042;-75
2023/02/18 08:28:36;;;;;;;41.47;26.35;;;;;;;6.49;100.00;101092.38;5008399;28;20046;-73
2023/02/18 08:31:02;;;;;;;39.50;24.48;;;;;;;6.72;100.00;101088.69;5008500;28;20507;-71
2023/02/18 08:33:28;;;;;;;38.90;25.30;;;;;;;6.86;100.00;101107.50;5008159;28;20427;-70
2023/02/18 08:35:54;;;;;;;36.15;24.52;;;;;;;6.97;100.00;101085.97;5008487;28;20135;-70
2023/02/18 08:38:21;;;;;;;36.92;24.50;;;;;;;7.13;100.00;101092.06;5008532;28;20567;-70
2023/02/18 08:40:46;;;;;;;35.88;23.85;;;;;;;7.31;100.00;101078.53;5008230;28;20070;-72
2023/02/18 08:43:13;;;;;;;33.72;22.70;;;;;;;7.47;100.00;101075.22;5008370;28;20532;-69
2023/02/18 08:45:39;;;;;;;34.20;22.45;;;;;;;7.74;100.00;101084.53;5008495;28;20523;-70
2023/02/18 08:48:06;;;;;;;37.42;23.52;;;;;;;8.02;100.00;101080.97;4975515;28;20069;-71
2023/02/18 08:50:32;;;;;;;31.90;23.25;;;;;;;8.22;100.00;101078.66;5008245;28;20467;-70
2023/02/18 08:53:02;;;;;;;32.88;22.35;;;;;;;8.50;100.00;101069.91;5008248;28;20050;-69
2023/02/18 08:55:31;;;;;;;31.88;22.33;;;;;;;8.64;100.00;101075.84;5008219;28;20045;-73
2023/02/18 08:58:17;;;;;;;30.35;22.48;;;;;;;8.85;100.00;101084.72;4987036;28;20054;-70
2023/02/18 09:00:43;;;;;;;34.00;21.80;;;;;;;8.94;100.00;101086.03;4984046;28;20045;-72
2023/02/18 09:03:12;;;;;;;29.75;20.52;;;;;;;9.03;100.00;101089.97;4970550;28;20035;-72
2023/02/18 09:05:39;;;;;;;30.90;21.27;;;;;;;8.99;100.00;101077.72;4973087;28;20045;-71
2023/02/18 09:08:05;;;;;;;29.42;21.38;;;;;;;9.08;100.00;101087.63;4972880;28;20041;-71
2023/02/18 09:10:30;;;;;;;37.20;24.30;;;;;;;9.14;100.00;101072.50;4973087;28;20479;-72
2023/02/18 09:12:55;;;;;;;29.23;21.98;;;;;;;9.23;100.00;101067.84;4972796;28;20117;-69
2023/02/18 09:15:21;;;;;;;26.88;19.83;;;;;;;9.28;100.00;101054.28;4972898;28;20479;-69
2023/02/18 09:17:46;;;;;;;27.67;19.98;;;;;;;9.43;100.00;101038.72;4973009;28;20808;-73
2023/02/18 09:20:12;;;;;;;23.98;17.17;;;;;;;9.56;100.00;101035.97;4972952;28;20042;-73
2023/02/18 09:22:37;;;;;;;22.90;15.52;;;;;;;9.73;100.00;101034.22;4972821;28;20113;-73
2023/02/18 09:25:04;;;;;;;24.67;16.35;;;;;;;10.02;100.00;101047.69;4972776;28;20042;-71
2023/02/18 09:27:29;;;;;;;30.73;17.13;;;;;;;10.01;100.00;101004.63;4956315;28;20142;-72
2023/02/18 09:29:55;;;;;;;24.25;17.02;;;;;;;10.27;100.00;101034.25;4972628;28;20042;-72
2023/02/18 09:32:20;;;;;;;23.52;16.30;;;;;;;10.30;100.00;101039.53;4972613;28;20526;-70
2023/02/18 09:34:47;;;;;;;25.17;15.32;;;;;;;10.16;100.00;100997.59;4979193;28;20383;-71
2023/02/18 09:37:32;;;;;;;23.27;12.88;;;;;;;10.63;94.42;101041.06;4972439;28;20137;-70
2023/02/18 09:39:58;;;;;;;33.95;8.85;;;;;;;11.06;82.16;101035.25;4997288;28;20128;-68
2023/02/18 09:42:31;;;;;;;18.88;7.07;;;;;;;11.20;79.71;101033.25;5001246;28;20045;-72
2023/02/18 09:45:01;;;;;;;12.80;7.25;;;;;;;11.29;78.73;101033.69;4997721;28;20174;-69
2023/02/18 09:47:32;;;;;;;15.02;7.43;;;;;;;11.00;75.23;100962.63;5000492;28;20516;-70
2023/02/18 09:50:06;;;;;;;15.68;7.47;;;;;;;11.45;74.63;101030.06;4998328;28;20113;-69
2023/02/18 09:52:36;;;;;;;12.45;7.32;;;;;;;11.44;76.09;101001.53;4999619;28;20049;-70
2023/02/18 09:55:16;;;;;;;12.07;8.60;;;;;;;11.68;78.94;101009.44;5001191;28;20037;-70
2023/02/18 09:57:53;;;;;;;17.40;11.57;;;;;;;11.65;86.28;101014.47;4998849;28;20133;-70
2023/02/18 10:00:24;;;;;;;13.15;6.78;;;;;;;11.80;71.29;101003.84;4998343;28;20113;-69
2023/02/18 10:03:12;;;;;;;14.88;7.18;;;;;;;11.87;70.14;100994.66;4983621;28;20109;-70
2023/02/18 10:05:41;;;;;;;16.13;6.28;;;;;;;11.93;60.31;100992.31;4938838;29;20040;-69
2023/02/18 10:08:20;;;;;;;16.88;6.38;;;;;;;11.78;56.25;100944.31;4945850;29;20027;-69
2023/02/18 10:10:46;;;;;;;9.40;5.70;;;;;;;12.10;55.22;100990.41;4943744;29;20051;-75
2023/02/18 10:13:20;;;;;;;11.63;5.72;;;;;;;12.12;54.91;100991.38;4943123;29;20090;-72
2023/02/18 10:15:47;;;;;;;11.40;6.07;;;;;;;12.26;54.14;100977.25;4943293;28;20098;-73
2023/02/18 10:18:31;;;;;;;17.73;6.63;;;;;;;12.30;52.41;100966.19;4943343;29;20032;-70
2023/02/18 10:21:05;;;;;;;11.68;6.25;;;;;;;12.38;53.02;100968.19;4943991;29;20078;-68
2023/02/18 10:23:40;;;;;;;15.50;6.20;;;;;;;12.43;50.78;100954.56;4941736;29;20772;-74
2023/02/18 10:26:13;;;;;;;16.92;6.88;;;;;;;12.54;49.96;100951.50;4943318;29;20035;-70
2023/02/18 10:28:39;;;;;;;21.42;6.70;;;;;;;12.58;50.23;100943.88;4943331;29;20031;-72
2023/02/18 10:31:09;;;;;;;17.25;6.35;;;;;;;12.74;48.45;100945.34;4942204;29;20023;-69
2023/02/18 10:33:43;;;;;;;20.55;8.85;;;;;;;12.67;48.49;100927.78;4941169;29;20034;-68
2023/02/18 10:36:25;;;;;;;24.42;9.80;;;;;;;12.72;49.12;100922.78;4941850;29;20046;-70
2023/02/18 10:39:13;;;;;;;8.65;5.68;;;;;;;12.85;48.76;100926.72;4943165;29;20549;-70
2023/02/18 10:42:24;;;;;;;12.65;6.55;;;;;;;12.91;48.97;100927.78;4966698;28;20398;-71
2023/02/18 10:45:23;;;;;;;25.73;10.68;;;;;;;13.05;48.08;100909.25;5005254;28;20042;-74
2023/02/18 10:48:17;;;;;;;17.33;6.80;;;;;;;13.23;46.31;100920.25;5010151;28;20030;-72
2023/02/18 10:50:44;;;;;;;12.30;6.85;;;;;;;13.32;46.83;100908.41;5009973;28;20050;-72
2023/02/18 10:53:32;;;;;;;13.98;7.10;;;;;;;13.52;46.77;100915.16;5010267;28;20465;-72
2023/02/18 10:55:57;;;;;;;18.95;8.88;;;;;;;13.60;46.25;100902.41;5008844;28;21291;-72
2023/02/18 10:58:31;;;;;;;17.55;8.23;;;;;;;13.43;46.36;100861.28;5007776;28;20079;-72
2023/02/18 11:00:57;;;;;;;9.25;6.20;;;;;;;13.49;46.17;100857.97;5009711;28;20052;-72
2023/02/18 11:03:25;;;;;;;13.80;5.97;;;;;;;13.83;46.19;100894.47;5009202;28;20033;-69
2023/02/18 11:05:56;;;;;;;14.15;6.47;;;;;;;13.94;45.47;100882.69;5009464;28;20507;-72
2023/02/18 11:08:25;;;;;;;10.02;5.30;;;;;;;14.31;45.42;100875.97;4989865;28;20044;-71
2023/02/18 11:10:52;;;;;;;11.13;5.90;;;;;;;14.61;44.70;100869.84;5006106;28;20045;-71
2023/02/18 11:13:33;;;;;;;18.65;5.70;;;;;;;14.93;43.46;100862.06;5009038;28;20167;-72
2023/02/18 11:16:03;;;;;;;13.15;4.82;;;;;;;15.09;42.63;100858.13;5008799;28;20045;-71
2023/02/18 11:18:38;;;;;;;15.30;6.28;;;;;;;15.30;42.66;100857.78;5009395;28;20030;-73